createdAt,value
2019-06-07T00:00:40.503Z,101075.27
2019-06-07T00:03:23.975Z,100963.28
2019-06-07T00:05:46.619Z,101098.55
2019-06-07T00:08:24.947Z,101095.91
2019-06-07T00:10:53.971Z,101101.77
2019-06-07T00:13:25.023Z,101096.19
2019-06-07T00:15:56.082Z,101104.92
2019-06-07T00:18:26.346Z,101093.69
2019-06-07T00:20:58.463Z,101099.88
2019-06-07T00:23:30.112Z,101107.89
2019-06-07T00:26:00.966Z,101109.88
2019-06-07T00:28:35.280Z,101102.03
2019-06-07T00:31:11.394Z,101092.80
2019-06-07T00:33:44.538Z,101113.34
2019-06-07T00:36:20.707Z,101105.14
2019-06-07T00:38:53.647Z,101107.41
2019-06-07T00:41:23.614Z,101102.05
2019-06-07T00:44:00.086Z,101102.78
2019-06-07T00:46:45.878Z,101102.30
2019-06-07T00:49:34.876Z,101107.21
2019-06-07T00:51:53.831Z,101106.47
2019-06-07T00:54:25.314Z,101104.84
2019-06-07T00:57:02.586Z,101114.29
2019-06-07T00:59:36.451Z,101115.37
2019-06-07T01:02:06.913Z,101108.20
2019-06-07T01:04:38.517Z,101093.98
2019-06-07T01:07:08.986Z,101104.27
2019-06-07T01:09:53.565Z,101109.91
2019-06-07T01:12:26.652Z,101118.10
2019-06-07T01:15:01.048Z,101119.55
2019-06-07T01:17:49.987Z,101133.16
2019-06-07T01:20:22.787Z,101133.11
2019-06-07T01:22:55.367Z,101127.98
2019-06-07T01:25:34.211Z,101142.04
2019-06-07T01:28:04.982Z,101147.70
2019-06-07T01:30:36.677Z,101151.63
2019-06-07T01:33:10.645Z,101154.23
2019-06-07T01:35:43.937Z,101157.58
2019-06-07T01:38:13.973Z,101152.17
2019-06-07T01:40:44.739Z,101148.00
2019-06-07T01:43:31.006Z,101150.70
2019-06-07T01:46:16.074Z,101156.74
2019-06-07T01:48:54.067Z,101166.22
2019-06-07T01:51:27.918Z,101171.92
2019-06-07T01:54:48.836Z,101180.98
2019-06-07T01:56:37.024Z,101184.84
2019-06-07T01:59:13.456Z,101180.81
2019-06-07T02:01:44.135Z,101180.81
2019-06-07T02:04:21.581Z,101179.05
2019-06-07T02:06:55.209Z,101167.03
2019-06-07T02:09:31.566Z,101171.98
2019-06-07T02:11:59.890Z,101171.50
2019-06-07T02:14:39.160Z,101164.56
2019-06-07T02:17:30.934Z,101168.98
2019-06-07T02:20:05.319Z,101156.82
2019-06-07T02:22:46.861Z,101157.97
2019-06-07T02:25:48.713Z,101160.54
2019-06-07T02:28:26.742Z,101164.91
2019-06-07T02:30:44.930Z,101163.31
2019-06-07T02:33:08.316Z,101052.49
2019-06-07T02:35:40.922Z,101170.30
2019-06-07T02:38:17.160Z,101172.42
2019-06-07T02:40:48.025Z,101179.72
2019-06-07T02:43:36.250Z,101183.87
2019-06-07T02:46:25.130Z,101188.73
2019-06-07T02:48:40.631Z,101196.68
2019-06-07T02:51:12.776Z,101202.38
2019-06-07T02:53:45.416Z,101191.42
2019-06-07T02:58:48.204Z,101187.89
2019-06-07T03:01:22.464Z,101196.59
2019-06-07T03:03:53.556Z,101192.70
2019-06-07T03:06:29.662Z,101191.02
2019-06-07T03:08:57.666Z,101190.91
2019-06-07T03:11:32.330Z,101182.75
2019-06-07T03:14:04.092Z,101183.79
2019-06-07T03:16:46.306Z,101180.62
2019-06-07T03:19:37.297Z,101188.52
2019-06-07T03:22:17.685Z,101190.42
2019-06-07T03:31:20.952Z,101196.13
2019-06-07T03:33:50.764Z,101197.38
2019-06-07T03:36:32.138Z,101201.83
2019-06-07T03:39:02.043Z,101203.13
2019-06-07T03:41:49.915Z,101200.58
2019-06-07T03:44:16.065Z,101200.91
2019-06-07T03:46:48.134Z,101200.39
2019-06-07T03:49:20.841Z,101195.06
2019-06-07T03:51:53.997Z,101205.70
2019-06-07T03:54:27.256Z,101208.79
2019-06-07T03:56:57.065Z,101193.81
2019-06-07T03:59:36.212Z,101193.70
2019-06-07T04:02:12.896Z,101200.91
2019-06-07T04:04:42.881Z,101205.70
2019-06-07T04:07:12.748Z,101213.45
2019-06-07T04:09:51.773Z,101214.23
2019-06-07T04:12:23.124Z,101217.14
2019-06-07T04:14:56.784Z,101218.88
2019-06-07T04:17:33.776Z,101228.14
2019-06-07T04:20:07.141Z,101226.30
2019-06-07T04:22:40.490Z,101227.92
2019-06-07T04:25:22.126Z,101224.16
2019-06-07T04:27:56.019Z,101227.33
2019-06-07T04:31:04.509Z,101228.73
2019-06-07T04:33:39.752Z,101225.97
2019-06-07T04:36:08.784Z,101218.42
2019-06-07T04:38:42.944Z,101223.55
2019-06-07T04:41:15.359Z,101224.20
2019-06-07T04:43:49.343Z,101217.84
2019-06-07T04:46:25.372Z,101221.73
2019-06-07T04:48:58.709Z,101228.25
2019-06-07T04:51:31.939Z,101238.70
2019-06-07T04:54:03.562Z,101238.67
2019-06-07T04:56:43.764Z,101232.38
2019-06-07T04:59:10.059Z,101231.38
2019-06-07T05:01:42.631Z,101234.84
2019-06-07T05:04:11.474Z,101234.76
2019-06-07T05:06:44.762Z,101242.87
2019-06-07T05:09:14.282Z,101245.77
2019-06-07T05:11:45.031Z,101255.34
2019-06-07T05:14:14.826Z,101259.73
2019-06-07T05:16:44.917Z,101260.06
2019-06-07T05:19:14.612Z,101269.27
2019-06-07T05:22:02.456Z,101284.53
2019-06-07T05:24:17.220Z,101280.89
2019-06-07T05:26:47.539Z,101289.58
2019-06-07T05:29:17.754Z,101290.43
2019-06-07T05:31:50.676Z,101280.59
2019-06-07T05:34:20.427Z,101281.52
2019-06-07T05:37:11.177Z,101284.17
2019-06-07T05:39:26.168Z,101284.09
2019-06-07T05:42:01.911Z,101284.09
2019-06-07T05:44:32.226Z,101277.87
2019-06-07T05:47:02.066Z,101284.09
2019-06-07T05:49:32.932Z,101290.93
2019-06-07T05:52:04.201Z,101289.31
2019-06-07T05:54:35.131Z,101294.70
2019-06-07T05:57:06.143Z,101295.98
2019-06-07T05:59:38.298Z,101295.31
2019-06-07T06:02:21.821Z,101298.77
2019-06-07T06:04:45.832Z,101299.77
2019-06-07T06:07:12.432Z,101304.19
2019-06-07T06:09:43.194Z,101297.59
2019-06-07T06:12:33.405Z,101299.00
2019-06-07T06:14:47.082Z,101302.82
2019-06-07T06:17:17.347Z,101312.42
2019-06-07T06:19:52.403Z,101313.87
2019-06-07T06:22:18.502Z,101312.95
2019-06-07T06:25:28.821Z,101303.34
2019-06-07T06:28:02.553Z,101298.23
2019-06-07T06:29:52.472Z,101240.69
2019-06-07T06:34:55.972Z,101310.31
2019-06-07T06:37:25.587Z,101317.78
2019-06-07T06:39:56.662Z,101312.52
2019-06-07T06:42:26.291Z,101310.79
2019-06-07T06:44:56.039Z,101318.88
2019-06-07T06:47:25.813Z,101314.14
2019-06-07T06:49:55.708Z,101317.45
2019-06-07T06:52:26.179Z,101319.14
2019-06-07T06:55:00.778Z,101325.00
2019-06-07T06:57:27.827Z,101326.25
2019-06-07T06:59:59.399Z,101323.44
2019-06-07T07:02:31.459Z,101331.15
2019-06-07T07:05:01.406Z,101341.61
2019-06-07T07:07:31.621Z,101346.98
2019-06-07T07:10:03.172Z,101347.39
2019-06-07T07:12:33.422Z,101352.18
2019-06-07T07:15:03.997Z,101357.34
2019-06-07T07:17:50.472Z,101354.39
2019-06-07T07:20:08.814Z,101361.17
2019-06-07T07:22:39.790Z,101367.80
2019-06-07T07:25:10.160Z,101378.63
2019-06-07T07:27:40.602Z,101387.25
2019-06-07T07:30:36.263Z,101389.80
2019-06-07T07:32:45.560Z,101381.53
2019-06-07T07:35:13.737Z,101378.95
2019-06-07T07:37:43.746Z,101383.27
2019-06-07T07:40:56.302Z,101384.22
2019-06-07T07:42:47.547Z,101391.11
2019-06-07T07:45:17.521Z,101392.91
2019-06-07T07:48:03.428Z,101385.34
2019-06-07T07:50:18.816Z,101382.26
2019-06-07T07:52:53.464Z,101370.80
2019-06-07T07:55:19.970Z,101381.17
2019-06-07T07:57:58.076Z,101379.77
2019-06-07T08:00:50.377Z,101377.84
2019-06-07T08:02:58.702Z,101373.05
2019-06-07T08:05:41.964Z,101370.99
2019-06-07T08:08:01.621Z,101367.22
2019-06-07T08:10:28.719Z,101368.42
2019-06-07T08:13:22.124Z,101353.83
2019-06-07T08:15:29.922Z,101368.98
2019-06-07T08:18:03.855Z,101366.17
2019-06-07T08:20:30.675Z,101368.21
2019-06-07T08:23:01.323Z,101374.63
2019-06-07T08:25:31.264Z,101371.98
2019-06-07T08:28:01.186Z,101378.80
2019-06-07T08:30:50.500Z,101370.87
2019-06-07T08:33:24.807Z,101374.41
2019-06-07T08:38:24.128Z,101378.44
2019-06-07T08:40:37.869Z,101374.73
2019-06-07T08:43:19.629Z,101371.36
2019-06-07T08:45:39.886Z,101369.95
2019-06-07T08:48:27.026Z,101372.08
2019-06-07T08:50:40.850Z,101373.45
2019-06-07T08:53:12.097Z,101375.58
2019-06-07T08:55:42.064Z,101369.35
2019-06-07T08:58:13.393Z,101378.72
2019-06-07T09:00:47.996Z,101389.22
2019-06-07T09:03:19.629Z,101389.66
2019-06-07T09:05:53.416Z,101395.52
2019-06-07T09:08:29.802Z,101395.68
2019-06-07T09:10:59.537Z,101390.30
2019-06-07T09:13:29.544Z,101383.91
2019-06-07T09:16:04.863Z,101385.47
2019-06-07T09:18:43.180Z,101386.05
2019-06-07T09:21:09.054Z,101377.42
2019-06-07T09:23:37.359Z,101372.69
2019-06-07T09:26:18.296Z,101374.63
2019-06-07T09:28:43.216Z,101372.60
2019-06-07T09:31:13.189Z,101365.63
2019-06-07T09:33:43.466Z,101368.52
2019-06-07T09:36:13.735Z,101366.72
2019-06-07T09:38:44.830Z,101361.67
2019-06-07T09:41:14.838Z,101368.21
2019-06-07T09:44:09.948Z,101373.93
2019-06-07T09:46:18.451Z,101374.10
2019-06-07T09:51:21.799Z,101373.20
2019-06-07T09:53:52.949Z,101364.94
2019-06-07T09:56:23.945Z,101373.70
2019-06-07T09:58:54.450Z,101368.33
2019-06-07T10:01:25.079Z,101361.98
2019-06-07T10:03:54.911Z,101369.59
2019-06-07T10:06:25.725Z,101368.78
2019-06-07T10:11:29.199Z,101384.91
2019-06-07T10:14:02.406Z,101382.80
2019-06-07T10:16:45.963Z,101386.18
2019-06-07T10:19:05.637Z,101389.38
2019-06-07T10:21:35.733Z,101386.37
2019-06-07T10:24:05.616Z,101392.48
2019-06-07T10:26:37.747Z,101390.33
2019-06-07T10:29:09.086Z,101389.30
2019-06-07T10:31:40.491Z,101391.84
2019-06-07T10:34:10.866Z,101388.87
2019-06-07T10:36:42.684Z,101388.64
2019-06-07T10:39:13.396Z,101389.23
2019-06-07T10:41:43.357Z,101398.05
2019-06-07T10:44:13.220Z,101390.75
2019-06-07T10:46:43.038Z,101393.70
2019-06-07T10:49:13.942Z,101398.17
2019-06-07T10:51:45.622Z,101395.84
2019-06-07T10:54:27.878Z,101394.74
2019-06-07T10:56:48.402Z,101393.33
2019-06-07T10:59:20.406Z,101405.67
2019-06-07T11:01:51.013Z,101401.10
2019-06-07T11:04:21.898Z,101402.44
2019-06-07T11:06:51.656Z,101404.31
2019-06-07T11:09:21.314Z,101400.05
2019-06-07T11:11:51.006Z,101399.98
2019-06-07T11:14:21.343Z,101404.09
2019-06-07T11:16:52.620Z,101408.09
2019-06-07T11:19:22.219Z,101402.95
2019-06-07T11:21:52.944Z,101408.02
2019-06-07T11:24:24.742Z,101396.05
2019-06-07T11:26:56.130Z,101403.23
2019-06-07T11:29:26.016Z,101408.62
2019-06-07T11:31:55.691Z,101411.15
2019-06-07T11:34:29.113Z,101409.56
2019-06-07T11:36:59.839Z,101404.13
2019-06-07T11:39:29.669Z,101407.81
2019-06-07T11:42:00.135Z,101397.47
2019-06-07T11:44:29.777Z,101402.98
2019-06-07T11:47:01.402Z,101409.07
2019-06-07T11:49:32.776Z,101405.50
2019-06-07T11:52:03.583Z,101403.92
2019-06-07T11:54:34.105Z,101402.34
2019-06-07T11:57:05.109Z,101411.58
2019-06-07T11:59:34.744Z,101403.30
2019-06-07T12:02:07.107Z,101406.31
2019-06-07T12:04:36.754Z,101410.97
2019-06-07T12:07:10.171Z,101418.69
2019-06-07T12:09:38.089Z,101420.11
2019-06-07T12:12:10.342Z,101415.63
2019-06-07T12:14:40.454Z,101411.55
2019-06-07T12:17:11.256Z,101417.20
2019-06-07T12:19:43.434Z,101416.77
2019-06-07T12:22:14.216Z,101412.20
2019-06-07T12:24:44.445Z,101413.05
2019-06-07T12:27:14.772Z,101408.47
2019-06-07T12:29:44.566Z,101408.56
2019-06-07T12:32:15.354Z,101407.70
2019-06-07T12:34:45.455Z,101399.27
2019-06-07T12:37:19.338Z,101396.36
2019-06-07T12:39:47.863Z,101402.53
2019-06-07T12:42:18.527Z,101401.86
2019-06-07T12:44:48.508Z,101394.52
2019-06-07T12:47:18.917Z,101390.53
2019-06-07T12:49:51.770Z,101387.28
2019-06-07T12:52:22.993Z,101395.87
2019-06-07T12:54:53.463Z,101392.05
2019-06-07T12:57:24.238Z,101390.41
2019-06-07T12:59:54.407Z,101386.24
2019-06-07T13:02:25.562Z,101381.81
2019-06-07T13:04:56.786Z,101382.80
2019-06-07T13:07:28.705Z,101386.80
2019-06-07T13:09:58.614Z,101384.60
2019-06-07T13:12:29.258Z,101385.73
2019-06-07T13:15:01.773Z,101368.01
2019-06-07T13:17:31.738Z,101367.91
2019-06-07T13:20:02.587Z,101371.48
2019-06-07T13:22:33.183Z,101361.23
2019-06-07T13:25:03.059Z,101364.78
2019-06-07T13:27:34.309Z,101363.47
2019-06-07T13:30:10.320Z,101358.59
2019-06-07T13:32:38.113Z,101361.15
2019-06-07T13:35:08.671Z,101353.48
2019-06-07T13:37:38.717Z,101361.39
2019-06-07T13:40:08.781Z,101357.36
2019-06-07T13:42:38.640Z,101355.95
2019-06-07T13:45:09.255Z,101354.52
2019-06-07T13:47:41.125Z,101353.60
2019-06-07T13:50:10.993Z,101351.04
2019-06-07T13:52:42.098Z,101341.91
2019-06-07T13:55:12.189Z,101356.11
2019-06-07T13:57:44.135Z,101357.60
2019-06-07T14:00:14.995Z,101359.05
2019-06-07T14:02:44.595Z,101355.26
2019-06-07T14:05:15.849Z,101347.80
2019-06-07T14:07:46.682Z,101350.76
2019-06-07T14:10:17.147Z,101352.93
2019-06-07T14:12:49.751Z,101363.69
2019-06-07T14:15:20.472Z,101369.80
2019-06-07T14:17:52.121Z,101367.78
2019-06-07T14:20:26.783Z,101370.34
2019-06-07T14:22:58.945Z,101362.20
2019-06-07T14:25:31.963Z,101348.59
2019-06-07T14:28:09.370Z,101346.91
2019-06-07T14:30:35.998Z,101236.16
2019-06-07T14:33:06.354Z,101350.67
2019-06-07T14:35:42.530Z,101340.23
2019-06-07T14:38:13.260Z,101342.19
2019-06-07T14:40:45.915Z,101337.34
2019-06-07T14:43:27.665Z,101338.38
2019-06-07T14:46:00.816Z,101329.51
2019-06-07T14:48:30.564Z,101332.65
2019-06-07T14:51:03.812Z,101321.83
2019-06-07T14:53:39.407Z,101324.50
2019-06-07T14:56:10.263Z,101319.16
2019-06-07T14:58:43.493Z,101317.34
2019-06-07T15:01:22.684Z,101317.81
2019-06-07T15:03:53.124Z,101310.77
2019-06-07T15:06:24.271Z,101311.42
2019-06-07T15:09:01.674Z,101309.23
2019-06-07T15:11:43.999Z,101297.80
2019-06-07T15:14:16.882Z,101291.24
2019-06-07T15:16:48.267Z,101288.75
2019-06-07T15:19:24.160Z,101285.26
2019-06-07T15:21:56.596Z,101286.07
2019-06-07T15:24:26.181Z,101286.07
2019-06-07T15:26:55.942Z,101289.36
2019-06-07T15:29:25.845Z,101274.86
2019-06-07T15:31:55.868Z,101275.71
2019-06-07T15:34:25.779Z,101274.37
2019-06-07T15:36:56.817Z,101263.80
2019-06-07T15:39:28.408Z,101261.83
2019-06-07T15:41:58.467Z,101261.02
2019-06-07T15:44:29.097Z,101259.69
2019-06-07T15:46:58.907Z,101256.42
2019-06-07T15:49:30.300Z,101254.92
2019-06-07T15:52:00.234Z,101263.02
2019-06-07T15:54:30.242Z,101262.73
2019-06-07T15:57:01.338Z,101262.97
2019-06-07T15:59:31.116Z,101257.82
2019-06-07T16:02:00.729Z,101264.02
2019-06-07T16:04:31.346Z,101260.09
2019-06-07T16:07:04.595Z,101257.14
2019-06-07T16:09:34.389Z,101261.05
2019-06-07T16:12:04.684Z,101250.53
2019-06-07T16:14:35.118Z,101251.41
2019-06-07T16:17:05.023Z,101244.27
2019-06-07T16:19:39.304Z,101242.93
2019-06-07T16:22:06.419Z,101245.78
2019-06-07T16:24:37.690Z,101243.11
2019-06-07T16:27:07.749Z,101237.30
2019-06-07T16:29:38.646Z,101237.75
2019-06-07T16:32:08.703Z,101241.28
2019-06-07T16:34:39.884Z,101236.28
2019-06-07T16:37:11.103Z,101233.41
2019-06-07T16:39:40.855Z,101228.62
2019-06-07T16:42:10.761Z,101230.31
2019-06-07T16:44:40.886Z,101226.86
2019-06-07T16:47:10.766Z,101232.20
2019-06-07T16:49:42.956Z,101237.83
2019-06-07T16:52:13.158Z,101227.28
2019-06-07T16:54:43.600Z,101227.84
2019-06-07T16:57:14.322Z,101237.86
2019-06-07T16:59:47.775Z,101233.06
2019-06-07T17:02:15.748Z,101238.86
2019-06-07T17:04:45.801Z,101235.66
2019-06-07T17:07:15.630Z,101236.65
2019-06-07T17:09:47.324Z,101232.09
2019-06-07T17:12:17.436Z,101244.05
2019-06-07T17:14:48.823Z,101250.70
2019-06-07T17:17:18.713Z,101247.48
2019-06-07T17:19:49.283Z,101243.50
2019-06-07T17:22:19.080Z,101254.78
2019-06-07T17:24:49.909Z,101250.44
2019-06-07T17:27:19.651Z,101258.36
2019-06-07T17:29:51.580Z,101254.56
2019-06-07T17:32:21.854Z,101247.93
2019-06-07T17:34:52.549Z,101254.51
2019-06-07T17:37:25.213Z,101255.66
2019-06-07T17:39:55.270Z,101259.30
2019-06-07T17:42:25.101Z,101266.63
2019-06-07T17:44:57.890Z,101255.51
2019-06-07T17:47:29.235Z,101248.54
2019-06-07T17:49:59.909Z,101260.87
2019-06-07T17:52:29.685Z,101261.17
2019-06-07T17:54:59.969Z,101255.98
2019-06-07T17:57:30.904Z,101255.46
2019-06-07T18:00:27.106Z,101249.02
2019-06-07T18:02:32.267Z,101260.41
2019-06-07T18:05:02.813Z,101254.91
2019-06-07T18:07:33.866Z,101251.30
2019-06-07T18:10:05.653Z,101249.66
2019-06-07T18:12:35.490Z,101256.64
2019-06-07T18:15:16.131Z,101255.55
2019-06-07T18:17:48.548Z,101256.87
2019-06-07T18:20:27.412Z,101246.52
2019-06-07T18:23:00.059Z,101244.44
2019-06-07T18:25:30.462Z,101245.34
2019-06-07T18:28:04.668Z,101251.32
2019-06-07T18:30:36.914Z,101252.66
2019-06-07T18:33:10.523Z,101257.63
2019-06-07T18:35:43.281Z,101261.99
2019-06-07T18:38:16.148Z,101265.64
2019-06-07T18:40:47.151Z,101260.59
2019-06-07T18:43:18.222Z,101252.58
2019-06-07T18:45:51.482Z,101260.80
2019-06-07T18:48:25.246Z,101255.55
2019-06-07T18:50:59.063Z,101264.30
2019-06-07T18:53:37.110Z,101259.93
2019-06-07T18:56:09.421Z,101267.47
2019-06-07T18:58:40.342Z,101271.86
2019-06-07T19:01:13.142Z,101273.38
2019-06-07T19:03:42.758Z,101275.11
2019-06-07T19:06:13.010Z,101268.87
2019-06-07T19:08:48.435Z,101273.14
2019-06-07T19:11:21.762Z,101272.22
2019-06-07T19:13:52.988Z,101273.87
2019-06-07T19:16:25.960Z,101274.70
2019-06-07T19:19:03.379Z,101272.23
2019-06-07T19:21:35.924Z,101266.68
2019-06-07T19:24:06.393Z,101258.55
2019-06-07T19:26:37.700Z,101262.36
2019-06-07T19:29:07.728Z,101265.08
2019-06-07T19:31:38.226Z,101270.35
2019-06-07T19:34:08.091Z,101270.98
2019-06-07T19:36:51.510Z,101277.90
2019-06-07T19:39:24.001Z,101276.62
2019-06-07T19:41:54.289Z,101283.02
2019-06-07T19:44:25.774Z,101274.66
2019-06-07T19:47:00.618Z,101269.20
2019-06-07T19:49:30.463Z,101268.44
2019-06-07T19:52:07.725Z,101259.06
2019-06-07T19:54:41.128Z,101256.59
2019-06-07T19:57:12.480Z,101249.58
2019-06-07T19:59:45.194Z,101243.42
2019-06-07T20:02:20.128Z,101248.42
2019-06-07T20:04:51.172Z,101260.98
2019-06-07T20:07:21.038Z,101264.08
2019-06-07T20:09:52.400Z,101266.38
2019-06-07T20:12:24.089Z,101265.61
2019-06-07T20:15:17.517Z,101264.28
2019-06-07T20:17:31.137Z,101269.70
2019-06-07T20:20:02.845Z,101273.27
2019-06-07T20:22:32.436Z,101283.25
2019-06-07T20:25:03.176Z,101277.20
2019-06-07T20:27:33.271Z,101286.68
2019-06-07T20:30:04.400Z,101281.73
2019-06-07T20:32:34.846Z,101286.94
2019-06-07T20:35:06.086Z,101288.83
2019-06-07T20:37:37.675Z,101290.39
2019-06-07T20:40:22.765Z,101282.56
2019-06-07T20:42:43.825Z,101283.06
2019-06-07T20:45:15.121Z,101288.31
2019-06-07T20:47:47.344Z,101291.78
2019-06-07T20:50:17.407Z,101291.23
2019-06-07T20:52:48.245Z,101285.89
2019-06-07T20:55:19.263Z,101280.89
2019-06-07T20:57:50.630Z,101270.72
2019-06-07T21:00:22.075Z,101254.93
2019-06-07T21:02:54.664Z,101269.55
2019-06-07T21:05:24.409Z,101264.80
2019-06-07T21:07:54.234Z,101277.31
2019-06-07T21:10:26.500Z,101264.91
2019-06-07T21:12:59.697Z,101263.19
2019-06-07T21:15:31.167Z,101270.67
2019-06-07T21:18:08.667Z,101274.61
2019-06-07T21:20:36.643Z,101275.48
2019-06-07T21:23:07.094Z,101278.77
2019-06-07T21:25:41.504Z,101277.87
2019-06-07T21:28:14.274Z,101274.78
2019-06-07T21:30:44.787Z,101272.22
2019-06-07T21:33:15.491Z,101279.81
2019-06-07T21:35:45.102Z,101272.28
2019-06-07T21:38:20.768Z,101274.44
2019-06-07T21:40:57.654Z,101267.91
2019-06-07T21:43:28.579Z,101263.53
2019-06-07T21:46:05.443Z,101156.97
2019-06-07T21:48:38.709Z,101281.36
2019-06-07T21:51:12.719Z,101281.47
2019-06-07T21:53:45.791Z,101266.45
2019-06-07T21:56:17.335Z,101269.95
2019-06-07T21:58:47.870Z,101274.33
2019-06-07T22:01:37.014Z,101266.36
2019-06-07T22:04:09.657Z,101270.34
2019-06-07T22:06:44.462Z,101264.63
2019-06-07T22:09:21.907Z,101263.75
2019-06-07T22:11:55.614Z,101262.86
2019-06-07T22:14:32.572Z,101263.16
2019-06-07T22:17:04.324Z,101265.75
2019-06-07T22:19:54.704Z,101263.59
2019-06-07T22:22:32.566Z,101261.87
2019-06-07T22:25:03.360Z,101261.98
2019-06-07T22:27:36.806Z,101259.72
2019-06-07T22:30:12.605Z,101261.09
2019-06-07T22:32:45.666Z,101258.48
2019-06-07T22:35:17.615Z,101255.45
2019-06-07T22:37:52.473Z,101252.84
2019-06-07T22:40:24.184Z,101255.05
2019-06-07T22:42:54.533Z,101242.72
2019-06-07T22:45:34.149Z,101251.61
2019-06-07T22:48:05.133Z,101248.17
2019-06-07T22:50:36.518Z,101251.23
2019-06-07T22:53:07.360Z,101257.04
2019-06-07T22:55:43.779Z,101255.71
2019-06-07T22:58:18.988Z,101256.14
2019-06-07T23:00:50.746Z,101255.42
2019-06-07T23:03:23.437Z,101253.36
2019-06-07T23:05:53.721Z,101256.12
2019-06-07T23:08:24.694Z,101244.92
2019-06-07T23:10:56.727Z,101249.05
2019-06-07T23:13:29.633Z,101249.24
2019-06-07T23:16:01.633Z,101245.01
2019-06-07T23:18:32.280Z,101244.70
2019-06-07T23:21:02.053Z,101233.30
2019-06-07T23:23:32.617Z,101240.46
2019-06-07T23:26:02.882Z,101234.63
2019-06-07T23:28:33.191Z,101241.66
2019-06-07T23:31:04.902Z,101240.23
2019-06-07T23:33:35.873Z,101231.73
2019-06-07T23:36:07.814Z,101240.53
2019-06-07T23:38:43.199Z,101246.20
2019-06-07T23:41:15.603Z,101247.36
2019-06-07T23:43:50.317Z,101244.48
2019-06-07T23:46:21.727Z,101142.27
2019-06-07T23:48:52.612Z,101247.13
2019-06-07T23:51:24.665Z,101251.34
2019-06-07T23:53:57.051Z,101245.44
2019-06-07T23:56:29.669Z,101257.04
2019-06-07T23:59:01.933Z,101255.27
